createdAt,value
2022-08-26T00:01:45.342Z,26.09
2022-08-26T00:04:12.643Z,26.24
2022-08-26T00:06:42.746Z,26.24
2022-08-26T00:09:16.212Z,26.07
2022-08-26T00:11:44.807Z,25.91
2022-08-26T00:14:13.883Z,26.04
2022-08-26T00:16:47.875Z,26.12
2022-08-26T00:19:15.208Z,26.05
2022-08-26T00:21:42.053Z,26.04
2022-08-26T00:24:08.878Z,25.92
2022-08-26T00:26:36.220Z,25.95
2022-08-26T00:29:03.796Z,26.10
2022-08-26T00:31:31.972Z,26.03
2022-08-26T00:33:59.135Z,26.18
2022-08-26T00:36:29.707Z,26.17
2022-08-26T00:38:57.933Z,25.92
2022-08-26T00:41:24.637Z,26.11
2022-08-26T00:43:52.918Z,26.30
2022-08-26T00:46:23.709Z,25.87
2022-08-26T00:48:53.547Z,26.14
2022-08-26T00:51:22.576Z,25.64
2022-08-26T00:53:59.651Z,25.65
2022-08-26T00:56:31.317Z,25.71
2022-08-26T00:59:01.669Z,25.95
2022-08-26T01:01:31.445Z,25.75
2022-08-26T01:03:59.932Z,25.94
2022-08-26T01:06:28.016Z,25.89
2022-08-26T01:08:56.191Z,25.97
2022-08-26T01:11:24.285Z,25.84
2022-08-26T01:13:54.847Z,25.94
2022-08-26T01:16:22.399Z,25.99
2022-08-26T01:18:49.242Z,25.91
2022-08-26T01:21:27.359Z,25.86
2022-08-26T01:23:57.376Z,25.74
2022-08-26T01:26:27.613Z,25.52
2022-08-26T01:28:56.671Z,25.32
2022-08-26T01:31:30.141Z,25.51
2022-08-26T01:34:11.027Z,25.67
2022-08-26T01:36:40.979Z,25.68
2022-08-26T01:39:09.021Z,25.81
2022-08-26T01:41:38.695Z,25.47
2022-08-26T01:44:07.751Z,25.37
2022-08-26T01:46:36.872Z,25.73
2022-08-26T01:49:06.928Z,25.82
2022-08-26T01:51:37.386Z,25.78
2022-08-26T01:54:06.034Z,25.59
2022-08-26T01:56:36.483Z,25.56
2022-08-26T01:59:06.800Z,25.58
2022-08-26T02:01:34.934Z,25.67
2022-08-26T02:04:20.878Z,25.87
2022-08-26T02:06:48.699Z,25.95
2022-08-26T02:09:17.026Z,25.57
2022-08-26T02:11:45.197Z,25.63
2022-08-26T02:14:21.747Z,25.88
2022-08-26T02:16:51.890Z,25.87
2022-08-26T02:19:26.380Z,25.76
2022-08-26T02:21:53.742Z,25.79
2022-08-26T02:24:27.349Z,25.81
2022-08-26T02:26:55.696Z,26.02
2022-08-26T02:29:36.280Z,26.06
2022-08-26T02:32:07.710Z,25.83
2022-08-26T02:34:34.905Z,26.00
2022-08-26T02:37:06.402Z,25.95
2022-08-26T02:39:34.780Z,25.87
2022-08-26T02:42:01.627Z,25.74
2022-08-26T02:44:28.718Z,25.82
2022-08-26T02:46:56.011Z,25.82
2022-08-26T02:49:24.275Z,25.63
2022-08-26T02:51:51.310Z,25.63
2022-08-26T02:54:21.259Z,25.73
2022-08-26T02:56:48.163Z,25.71
2022-08-26T02:59:15.442Z,25.81
2022-08-26T03:01:45.184Z,25.91
2022-08-26T03:04:12.696Z,25.77
2022-08-26T03:06:41.620Z,25.76
2022-08-26T03:09:09.139Z,25.64
2022-08-26T03:11:36.562Z,25.48
2022-08-26T03:14:04.292Z,25.48
2022-08-26T03:16:36.038Z,25.27
2022-08-26T03:19:04.263Z,25.30
2022-08-26T03:21:31.596Z,25.41
2022-08-26T03:23:58.858Z,25.51
2022-08-26T03:26:27.656Z,25.35
2022-08-26T03:29:13.506Z,25.26
2022-08-26T03:31:40.599Z,25.37
2022-08-26T03:34:07.504Z,25.26
2022-08-26T03:36:35.169Z,25.27
2022-08-26T03:39:02.438Z,25.16
2022-08-26T03:41:32.581Z,25.31
2022-08-26T03:44:01.687Z,25.37
2022-08-26T03:46:28.895Z,25.43
2022-08-26T03:48:56.537Z,25.32
2022-08-26T03:51:23.558Z,25.07
2022-08-26T03:53:51.133Z,25.46
2022-08-26T03:56:17.837Z,25.27
2022-08-26T03:58:44.708Z,25.02
2022-08-26T04:01:14.248Z,25.19
2022-08-26T04:04:00.300Z,25.25
2022-08-26T04:06:32.029Z,25.41
2022-08-26T04:09:01.639Z,25.29
2022-08-26T04:11:34.037Z,25.28
2022-08-26T04:14:04.983Z,25.18
2022-08-26T04:16:32.268Z,25.09
2022-08-26T04:18:59.201Z,25.05
2022-08-26T04:21:26.800Z,25.10
2022-08-26T04:23:53.808Z,25.12
2022-08-26T04:26:22.047Z,25.24
2022-08-26T04:28:50.118Z,25.23
2022-08-26T04:31:20.625Z,25.17
2022-08-26T04:33:49.551Z,25.16
2022-08-26T04:36:17.477Z,25.16
2022-08-26T04:38:46.666Z,25.13
2022-08-26T04:41:15.491Z,25.10
2022-08-26T04:43:45.488Z,25.17
2022-08-26T04:46:14.373Z,24.85
2022-08-26T04:48:41.527Z,24.96
2022-08-26T04:51:10.011Z,25.06
2022-08-26T04:53:37.561Z,24.73
2022-08-26T04:56:05.252Z,24.74
2022-08-26T04:58:32.293Z,24.88
2022-08-26T05:00:59.477Z,24.45
2022-08-26T05:03:27.410Z,24.63
2022-08-26T05:05:57.813Z,24.89
2022-08-26T05:08:24.678Z,24.86
2022-08-26T05:10:56.505Z,25.09
2022-08-26T05:13:26.473Z,24.72
2022-08-26T05:15:54.388Z,24.93
2022-08-26T05:18:24.065Z,25.03
2022-08-26T05:20:53.935Z,24.96
2022-08-26T05:23:23.342Z,25.12
2022-08-26T05:25:57.079Z,25.22
2022-08-26T05:28:26.804Z,25.19
2022-08-26T05:30:54.535Z,25.06
2022-08-26T05:33:22.020Z,25.12
2022-08-26T05:35:49.076Z,24.84
2022-08-26T05:38:24.054Z,25.21
2022-08-26T05:40:52.847Z,25.31
2022-08-26T05:43:20.549Z,25.25
2022-08-26T05:45:49.378Z,25.34
2022-08-26T05:48:19.002Z,25.10
2022-08-26T05:50:54.911Z,25.16
2022-08-26T05:53:23.870Z,25.04
2022-08-26T05:55:54.149Z,25.18
2022-08-26T05:58:22.196Z,25.03
2022-08-26T06:01:13.219Z,24.98
2022-08-26T06:03:44.516Z,25.11
2022-08-26T06:06:20.128Z,25.07
2022-08-26T06:08:48.392Z,24.88
2022-08-26T06:11:18.411Z,25.15
2022-08-26T06:13:46.130Z,25.40
2022-08-26T06:16:17.923Z,25.42
2022-08-26T06:18:46.719Z,25.46
2022-08-26T06:21:17.906Z,25.43
2022-08-26T06:24:04.485Z,25.79
2022-08-26T06:26:32.221Z,25.57
2022-08-26T06:28:59.670Z,25.72
2022-08-26T06:31:32.015Z,25.91
2022-08-26T06:34:00.132Z,25.91
2022-08-26T06:36:29.132Z,26.19
2022-08-26T06:39:00.526Z,25.89
2022-08-26T06:41:30.514Z,25.62
2022-08-26T06:43:57.529Z,25.91
2022-08-26T06:46:24.737Z,25.86
2022-08-26T06:48:54.282Z,25.98
2022-08-26T06:51:23.755Z,25.84
2022-08-26T06:53:53.335Z,26.02
2022-08-26T06:56:27.541Z,26.04
2022-08-26T06:58:54.885Z,25.88
2022-08-26T07:01:25.692Z,26.16
2022-08-26T07:03:54.321Z,26.15
2022-08-26T07:06:26.094Z,25.87
2022-08-26T07:08:55.001Z,26.00
2022-08-26T07:11:22.156Z,25.91
2022-08-26T07:13:56.121Z,26.14
2022-08-26T07:19:30.657Z,25.66
2022-08-26T07:22:03.323Z,25.86
2022-08-26T07:25:09.899Z,25.82
2022-08-26T07:27:42.433Z,25.49
2022-08-26T07:30:14.706Z,25.95
2022-08-26T07:32:42.021Z,25.99
2022-08-26T07:37:57.248Z,26.45
2022-08-26T07:40:27.313Z,26.80
2022-08-26T07:42:54.265Z,26.52
2022-08-26T07:45:24.891Z,26.39
2022-08-26T07:47:53.209Z,26.68
2022-08-26T07:50:50.317Z,26.78
2022-08-26T07:53:19.505Z,26.75
2022-08-26T07:56:01.435Z,26.55
2022-08-26T07:58:28.966Z,26.21
2022-08-26T08:01:00.011Z,26.19
2022-08-26T08:06:38.771Z,25.88
2022-08-26T08:09:07.125Z,26.24
2022-08-26T08:11:34.075Z,26.33
2022-08-26T08:14:08.416Z,26.78
2022-08-26T08:16:37.232Z,26.83
2022-08-26T08:19:05.921Z,26.99
2022-08-26T08:21:32.705Z,26.86
2022-08-26T08:23:59.990Z,26.98
2022-08-26T08:26:28.047Z,26.92
2022-08-26T08:28:56.980Z,26.67
2022-08-26T08:34:21.484Z,26.75
2022-08-26T08:36:50.655Z,26.49
2022-08-26T08:39:21.912Z,26.63
2022-08-26T08:42:04.228Z,26.72
2022-08-26T08:45:08.729Z,26.54
2022-08-26T08:47:49.901Z,26.37
2022-08-26T08:50:30.319Z,26.13
2022-08-26T08:53:11.136Z,25.96
2022-08-26T08:56:07.265Z,25.88
2022-08-26T08:58:53.768Z,25.93
2022-08-26T09:01:44.550Z,25.86
2022-08-26T09:04:43.139Z,25.89
2022-08-26T09:07:26.977Z,25.77
2022-08-26T09:10:16.952Z,25.92
2022-08-26T09:16:19.172Z,25.52
2022-08-26T09:18:59.208Z,25.51
2022-08-26T09:21:26.962Z,25.59
2022-08-26T09:23:56.604Z,25.99
2022-08-26T09:26:30.761Z,25.65
2022-08-26T09:29:01.243Z,25.76
2022-08-26T09:35:51.244Z,25.99
2022-08-26T09:38:37.432Z,25.93
2022-08-26T09:41:26.292Z,26.18
2022-08-26T09:44:18.320Z,26.22
2022-08-26T09:47:41.941Z,26.18
2022-08-26T09:53:36.633Z,26.41
2022-08-26T09:56:30.707Z,26.61
2022-08-26T09:59:02.619Z,26.39
2022-08-26T10:01:41.951Z,26.33
2022-08-26T10:04:14.754Z,26.29
2022-08-26T10:07:08.905Z,26.39
2022-08-26T10:09:45.281Z,26.34
2022-08-26T10:12:17.435Z,26.50
2022-08-26T10:14:48.692Z,26.06
2022-08-26T10:17:27.604Z,26.21
2022-08-26T10:20:03.037Z,25.91
2022-08-26T10:22:50.344Z,26.36
2022-08-26T10:25:28.497Z,26.28
2022-08-26T10:28:08.855Z,26.15
2022-08-26T10:30:46.271Z,26.22
2022-08-26T10:33:17.923Z,26.10
2022-08-26T10:35:51.503Z,26.14
2022-08-26T10:38:24.179Z,26.21
2022-08-26T10:41:01.369Z,26.03
2022-08-26T10:43:53.585Z,25.94
2022-08-26T10:46:39.933Z,26.09
2022-08-26T10:49:23.909Z,26.25
2022-08-26T10:51:56.117Z,26.33
2022-08-26T10:54:27.954Z,25.96
2022-08-26T10:57:14.441Z,26.12
2022-08-26T10:59:59.468Z,26.17
2022-08-26T11:02:50.142Z,25.75
2022-08-26T11:05:20.571Z,25.90
2022-08-26T11:07:54.860Z,26.14
2022-08-26T11:10:28.711Z,26.21
2022-08-26T11:13:01.326Z,25.95
2022-08-26T11:15:40.675Z,25.89
2022-08-26T11:18:14.676Z,25.84
2022-08-26T11:20:46.145Z,26.25
2022-08-26T11:23:26.527Z,25.93
2022-08-26T11:26:30.006Z,26.09
2022-08-26T11:29:25.251Z,26.23
2022-08-26T11:31:55.773Z,26.53
2022-08-26T11:38:04.476Z,26.70
2022-08-26T11:40:40.594Z,26.47
2022-08-26T11:43:31.444Z,26.36
2022-08-26T11:46:14.864Z,26.73
2022-08-26T11:48:43.600Z,26.64
2022-08-26T11:51:19.415Z,26.69
2022-08-26T11:53:47.216Z,26.61
2022-08-26T11:56:31.541Z,26.71
2022-08-26T11:59:05.451Z,26.50
2022-08-26T12:01:36.200Z,26.53
2022-08-26T12:04:16.576Z,26.17
2022-08-26T12:06:50.936Z,26.10
2022-08-26T12:09:25.083Z,26.23
2022-08-26T12:11:58.153Z,25.80
2022-08-26T12:14:27.707Z,26.14
2022-08-26T12:17:11.152Z,25.96
2022-08-26T12:19:38.671Z,25.88
2022-08-26T12:22:19.070Z,26.14
2022-08-26T12:25:05.734Z,26.14
2022-08-26T12:27:44.447Z,25.99
2022-08-26T12:30:20.278Z,26.27
2022-08-26T12:32:57.967Z,26.16
2022-08-26T12:36:18.994Z,26.43
2022-08-26T12:38:48.890Z,26.42
2022-08-26T12:41:40.778Z,26.67
2022-08-26T12:44:08.123Z,26.72
2022-08-26T12:46:35.474Z,26.67
2022-08-26T12:49:03.368Z,26.53
2022-08-26T12:51:33.356Z,26.83
2022-08-26T12:54:00.431Z,26.68
2022-08-26T12:56:29.677Z,26.79
2022-08-26T12:59:18.502Z,27.25
2022-08-26T13:01:46.880Z,26.92
2022-08-26T13:04:44.510Z,27.22
2022-08-26T13:07:32.845Z,27.08
2022-08-26T13:10:01.083Z,27.17
2022-08-26T13:12:31.975Z,27.09
2022-08-26T13:15:05.827Z,26.67
2022-08-26T13:17:58.202Z,26.51
2022-08-26T13:20:25.462Z,26.89
2022-08-26T13:22:59.485Z,27.06
2022-08-26T13:25:26.516Z,27.05
2022-08-26T13:27:54.138Z,27.10
2022-08-26T13:30:26.533Z,27.01
2022-08-26T13:32:57.203Z,26.74
2022-08-26T13:35:24.730Z,26.77
2022-08-26T13:37:51.551Z,26.67
2022-08-26T13:40:18.798Z,27.06
2022-08-26T13:42:49.854Z,26.88
2022-08-26T13:45:17.156Z,26.83
2022-08-26T13:47:45.107Z,26.72
2022-08-26T13:50:12.512Z,26.96
2022-08-26T13:52:44.087Z,26.62
2022-08-26T13:55:11.593Z,26.59
2022-08-26T13:57:38.950Z,26.67
2022-08-26T14:00:35.920Z,26.31
2022-08-26T14:03:40.264Z,26.62
2022-08-26T14:06:10.236Z,26.33
2022-08-26T14:08:38.503Z,26.45
2022-08-26T14:11:05.654Z,26.96
2022-08-26T14:13:41.699Z,27.13
2022-08-26T14:16:33.489Z,27.05
2022-08-26T14:19:04.200Z,26.94
2022-08-26T14:21:41.888Z,26.80
2022-08-26T14:24:21.281Z,27.11
2022-08-26T14:26:48.682Z,27.32
2022-08-26T14:29:16.940Z,27.08
2022-08-26T14:31:44.440Z,27.22
2022-08-26T14:34:13.207Z,27.22
2022-08-26T14:36:40.499Z,27.25
2022-08-26T14:39:14.384Z,27.24
2022-08-26T14:41:53.901Z,27.27
2022-08-26T14:44:22.220Z,27.18
2022-08-26T14:46:50.678Z,27.19
2022-08-26T14:49:19.295Z,27.46
2022-08-26T14:51:46.703Z,27.41
2022-08-26T14:54:14.798Z,27.21
2022-08-26T14:57:01.862Z,26.60
2022-08-26T14:59:32.051Z,26.77
2022-08-26T15:01:59.712Z,26.75
2022-08-26T15:04:27.742Z,26.54
2022-08-26T15:07:05.338Z,26.85
2022-08-26T15:09:36.460Z,26.80
2022-08-26T15:12:04.614Z,26.62
2022-08-26T15:14:33.053Z,27.33
2022-08-26T15:17:01.046Z,27.33
2022-08-26T15:19:31.223Z,27.17
2022-08-26T15:21:58.268Z,27.16
2022-08-26T15:24:33.450Z,27.06
2022-08-26T15:27:03.394Z,27.10
2022-08-26T15:29:36.278Z,27.41
2022-08-26T15:32:04.153Z,26.73
2022-08-26T15:34:33.197Z,26.66
2022-08-26T15:37:10.347Z,26.77
2022-08-26T15:39:51.986Z,26.96
2022-08-26T15:42:22.420Z,26.75
2022-08-26T15:44:54.811Z,26.97
2022-08-26T15:47:24.594Z,26.87
2022-08-26T15:49:54.188Z,26.80
2022-08-26T15:52:30.284Z,27.11
2022-08-26T15:54:57.783Z,26.72
2022-08-26T15:57:24.505Z,26.67
2022-08-26T15:59:53.966Z,26.64
2022-08-26T16:02:21.774Z,26.70
2022-08-26T16:04:48.722Z,26.60
2022-08-26T16:07:15.433Z,26.53
2022-08-26T16:09:42.618Z,26.50
2022-08-26T16:12:12.739Z,26.49
2022-08-26T16:14:40.960Z,26.15
2022-08-26T16:17:08.225Z,26.12
2022-08-26T16:19:35.164Z,26.23
2022-08-26T16:22:02.003Z,26.34
2022-08-26T16:24:30.685Z,26.44
2022-08-26T16:26:58.068Z,26.28
2022-08-26T16:29:25.210Z,26.17
2022-08-26T16:31:54.619Z,26.46
2022-08-26T16:34:22.393Z,26.35
2022-08-26T16:36:52.081Z,26.18
2022-08-26T16:39:18.922Z,26.39
2022-08-26T16:41:45.673Z,26.25
2022-08-26T16:44:12.516Z,25.93
2022-08-26T16:46:39.694Z,25.96
2022-08-26T16:49:06.601Z,26.28
2022-08-26T16:51:34.806Z,26.46
2022-08-26T16:54:07.063Z,26.75
2022-08-26T16:56:34.703Z,26.56
2022-08-26T16:59:03.297Z,26.32
2022-08-26T17:01:30.133Z,26.51
2022-08-26T17:03:57.271Z,26.46
2022-08-26T17:06:24.110Z,26.55
2022-08-26T17:08:56.078Z,26.56
2022-08-26T17:11:22.926Z,26.36
2022-08-26T17:13:49.634Z,26.26
2022-08-26T17:16:16.366Z,26.22
2022-08-26T17:18:43.444Z,26.49
2022-08-26T17:21:12.041Z,26.35
2022-08-26T17:23:41.916Z,26.12
2022-08-26T17:26:12.300Z,25.91
2022-08-26T17:28:39.375Z,25.55
2022-08-26T17:31:06.680Z,25.70
2022-08-26T17:33:33.835Z,25.96
2022-08-26T17:36:00.737Z,25.75
2022-08-26T17:38:29.128Z,25.83
2022-08-26T17:40:57.552Z,25.78
2022-08-26T17:43:26.883Z,25.74
2022-08-26T17:45:58.675Z,26.01
2022-08-26T17:48:35.201Z,26.17
2022-08-26T17:51:07.156Z,26.19
2022-08-26T17:53:34.161Z,26.18
2022-08-26T17:56:00.918Z,25.96
2022-08-26T17:58:29.247Z,25.66
2022-08-26T18:00:56.258Z,25.58
2022-08-26T18:03:23.613Z,25.52
2022-08-26T18:05:51.599Z,25.70
2022-08-26T18:08:19.169Z,25.74
2022-08-26T18:10:46.429Z,25.92
2022-08-26T18:13:14.905Z,25.72
2022-08-26T18:15:46.737Z,25.80
2022-08-26T18:18:14.551Z,25.77
2022-08-26T18:20:42.683Z,25.71
2022-08-26T18:23:09.972Z,25.61
2022-08-26T18:25:43.738Z,25.56
2022-08-26T18:28:11.269Z,25.29
2022-08-26T18:30:38.259Z,25.56
2022-08-26T18:33:05.029Z,25.54
2022-08-26T18:35:31.901Z,25.74
2022-08-26T18:38:01.438Z,25.80
2022-08-26T18:40:39.101Z,25.43
2022-08-26T18:43:05.980Z,25.13
2022-08-26T18:45:32.846Z,25.13
2022-08-26T18:48:00.422Z,25.08
2022-08-26T18:50:27.502Z,24.99
2022-08-26T18:52:54.299Z,25.14
2022-08-26T18:55:21.010Z,25.27
2022-08-26T18:57:47.653Z,24.84
2022-08-26T19:00:14.867Z,25.13
2022-08-26T19:02:41.699Z,25.09
2022-08-26T19:05:18.643Z,25.01
2022-08-26T19:07:48.369Z,25.06
2022-08-26T19:10:15.345Z,24.84
2022-08-26T19:12:42.558Z,25.08
2022-08-26T19:15:11.057Z,25.14
2022-08-26T19:17:37.956Z,25.02
2022-08-26T19:20:05.399Z,24.88
2022-08-26T19:22:32.954Z,24.80
2022-08-26T19:24:59.697Z,24.87
2022-08-26T19:27:26.642Z,24.83
2022-08-26T19:29:53.701Z,24.99
2022-08-26T19:32:24.268Z,25.02
2022-08-26T19:34:52.204Z,24.98
2022-08-26T19:37:20.156Z,25.03
2022-08-26T19:39:47.550Z,24.98
2022-08-26T19:42:14.497Z,24.97
2022-08-26T19:45:24.503Z,24.87
2022-08-26T19:47:52.937Z,24.87
2022-08-26T19:50:20.087Z,24.88
2022-08-26T19:52:49.471Z,25.07
2022-08-26T19:55:17.656Z,24.94
2022-08-26T19:57:45.248Z,24.93
2022-08-26T20:00:15.055Z,24.89
2022-08-26T20:02:42.457Z,24.90
2022-08-26T20:05:10.923Z,24.86
2022-08-26T20:07:38.363Z,24.88
2022-08-26T20:10:07.627Z,25.05
2022-08-26T20:12:35.708Z,25.05
2022-08-26T20:15:07.065Z,24.90
2022-08-26T20:17:34.066Z,24.93
2022-08-26T20:20:33.014Z,24.76
2022-08-26T20:23:02.524Z,24.96
2022-08-26T20:25:29.514Z,25.10
2022-08-26T20:27:56.553Z,24.89
2022-08-26T20:30:23.618Z,24.94
2022-08-26T20:32:50.385Z,24.89
2022-08-26T20:35:17.205Z,24.77
2022-08-26T20:37:44.268Z,24.64
2022-08-26T20:40:15.158Z,24.66
2022-08-26T20:42:42.512Z,24.70
2022-08-26T20:45:09.823Z,24.84
2022-08-26T20:47:36.746Z,24.75
2022-08-26T20:50:06.055Z,24.83
2022-08-26T20:52:32.790Z,24.61
2022-08-26T20:54:59.694Z,24.59
2022-08-26T20:57:26.544Z,24.51
2022-08-26T20:59:55.975Z,24.65
2022-08-26T21:02:22.767Z,24.47
2022-08-26T21:04:49.586Z,24.72
2022-08-26T21:07:16.479Z,24.55
2022-08-26T21:09:44.529Z,24.30
2022-08-26T21:12:11.256Z,24.33
2022-08-26T21:14:39.963Z,24.39
2022-08-26T21:17:06.630Z,24.00
2022-08-26T21:19:33.334Z,23.72
2022-08-26T21:22:00.246Z,23.86
2022-08-26T21:24:27.284Z,24.20
2022-08-26T21:26:54.100Z,23.64
2022-08-26T21:29:22.098Z,23.85
2022-08-26T21:31:49.131Z,23.65
2022-08-26T21:34:22.600Z,23.78
2022-08-26T21:36:49.972Z,24.00
2022-08-26T21:39:17.034Z,23.98
2022-08-26T21:41:44.980Z,23.83
2022-08-26T21:44:14.469Z,24.11
2022-08-26T21:46:42.285Z,24.18
2022-08-26T21:49:12.617Z,24.03
2022-08-26T21:51:43.159Z,24.24
2022-08-26T21:54:11.683Z,24.21
2022-08-26T21:56:44.853Z,24.13
2022-08-26T21:59:12.123Z,24.06
2022-08-26T22:01:39.123Z,24.27
2022-08-26T22:04:07.308Z,24.18
2022-08-26T22:06:39.763Z,24.23
2022-08-26T22:09:06.528Z,24.06
2022-08-26T22:11:33.537Z,24.00
2022-08-26T22:14:00.364Z,23.95
2022-08-26T22:16:28.734Z,24.12
2022-08-26T22:18:55.654Z,24.23
2022-08-26T22:21:24.331Z,24.19
2022-08-26T22:23:51.558Z,24.14
2022-08-26T22:26:27.415Z,23.95
2022-08-26T22:28:58.550Z,23.86
2022-08-26T22:31:37.598Z,24.02
2022-08-26T22:34:11.260Z,24.14
2022-08-26T22:36:43.111Z,24.19
2022-08-26T22:39:15.544Z,24.12
2022-08-26T22:41:44.962Z,24.18
2022-08-26T22:44:24.993Z,24.04
2022-08-26T22:46:54.210Z,23.82
2022-08-26T22:49:21.768Z,24.10
2022-08-26T22:51:48.822Z,23.96
2022-08-26T22:54:16.540Z,23.85
2022-08-26T22:56:44.912Z,23.69
2022-08-26T22:59:16.284Z,23.53
2022-08-26T23:01:46.907Z,23.45
2022-08-26T23:04:13.906Z,23.52
2022-08-26T23:06:43.266Z,23.67
2022-08-26T23:09:16.870Z,23.37
2022-08-26T23:11:44.539Z,23.69
2022-08-26T23:14:14.320Z,23.53
2022-08-26T23:16:41.656Z,23.57
2022-08-26T23:19:11.057Z,23.34
2022-08-26T23:21:38.333Z,23.38
2022-08-26T23:24:06.282Z,23.42
2022-08-26T23:26:39.937Z,23.51
2022-08-26T23:29:08.250Z,23.23
2022-08-26T23:31:37.264Z,23.23
2022-08-26T23:34:22.753Z,23.30
2022-08-26T23:37:10.785Z,23.12
2022-08-26T23:39:37.607Z,23.40
2022-08-26T23:42:06.035Z,23.36
2022-08-26T23:44:32.963Z,23.25
2022-08-26T23:47:00.009Z,23.44
2022-08-26T23:49:27.117Z,23.25
2022-08-26T23:52:12.815Z,23.31
2022-08-26T23:54:40.232Z,23.37
2022-08-26T23:57:07.365Z,23.27
2022-08-26T23:59:34.281Z,23.33
